Terminal Aerodrome Forecast
Issued by NWS Missoula, MT

Home | Current Version | Previous Version | Text Only | Print | Product List | Glossary On
Versions: 1 2 3 4 5 6 7 8 9 10 11 12 13 14 15 16 17 18 19 20 21
000
FTUS45 KMSO 211122
TAFGPI
TAF
KGPI 211122Z 2112/2212 VRB03KT P6SM VCFG OVC050
     FM211600 VRB02KT 4SM -SN BR OVC035
     FM211700 VRB02KT 2SM -SN BR OVC015
     FM220300 29004KT 4SM -SHSN OVC025=

USA.gov is the U.S. government's official web portal to all federal, state and local government web resources and services.